Time;durP1;ratioP1;P1;durP2;ratioP2;P2;SDS_P1;SDS_P2;PMS_P1;PMS_P2;Temp;Humidity;BMP_temperature;BMP_pressure;BME280_temperature;BME280_humidity;BME280_pressure;Samples;Min_cycle;Max_cycle;Signal;HPM_P1;HPM_P2
2022/09/18 00:02:05;;;;;;;13.32;1.58;;;10.70;1.00;;;;;;4953313;29;20038;-59
2022/09/18 00:04:30;;;;;;;8.38;1.67;;;10.50;1.00;;;;;;4953530;28;20035;-59
2022/09/18 00:06:56;;;;;;;7.32;1.30;;;10.80;1.00;;;;;;4952193;29;20034;-59
2022/09/18 00:09:22;;;;;;;12.00;1.90;;;10.80;1.00;;;;;;4953336;28;20118;-59
2022/09/18 00:11:49;;;;;;;5.70;1.30;;;;;;;;;;4953873;29;20062;-60
2022/09/18 00:14:20;;;;;;;9.65;1.88;;;11.00;1.00;;;;;;4953436;28;20526;-59
2022/09/18 00:16:47;;;;;;;14.57;2.28;;;;;;;;;;4953181;28;20544;-59
2022/09/18 00:19:13;;;;;;;9.88;1.83;;;11.10;1.00;;;;;;4953155;29;20031;-59
2022/09/18 00:21:41;;;;;;;7.57;1.80;;;11.20;1.00;;;;;;4952379;28;20085;-59
2022/09/18 00:24:07;;;;;;;7.60;1.58;;;11.30;1.00;;;;;;4953031;28;20054;-58
2022/09/18 00:26:34;;;;;;;6.93;1.50;;;;;;;;;;4952854;29;20496;-59
2022/09/18 00:29:00;;;;;;;8.38;2.03;;;;;;;;;;4953186;29;20049;-59
2022/09/18 00:31:28;;;;;;;7.63;1.85;;;;;;;;;;4952086;29;20430;-59
2022/09/18 00:33:55;;;;;;;9.38;1.98;;;11.90;1.00;;;;;;4952221;28;20043;-59
2022/09/18 00:36:22;;;;;;;7.65;1.58;;;;;;;;;;4953085;28;20039;-59
2022/09/18 00:38:48;;;;;;;10.90;2.13;;;;;;;;;;4952948;29;20135;-59
2022/09/18 00:41:22;;;;;;;9.38;2.33;;;;;;;;;;4952874;29;20397;-59
2022/09/18 00:43:49;;;;;;;7.82;1.67;;;;;;;;;;4953212;28;20544;-59
2022/09/18 00:46:23;;;;;;;8.38;1.88;;;11.30;1.00;;;;;;4952633;29;20048;-58
2022/09/18 00:49:12;;;;;;;7.07;1.67;;;;;;;;;;4952381;28;20134;-58
2022/09/18 00:51:38;;;;;;;12.70;2.22;;;;;;;;;;4952875;29;20326;-58
2022/09/18 00:54:14;;;;;;;10.60;2.03;;;;;;;;;;4946731;28;20043;-59
2022/09/18 00:56:40;;;;;;;11.38;2.03;;;12.00;1.00;;;;;;4952486;29;20426;-59
2022/09/18 00:59:08;;;;;;;11.27;1.95;;;;;;;;;;4952323;29;20109;-59
2022/09/18 01:01:33;;;;;;;6.93;1.77;;;12.00;1.00;;;;;;4951822;28;20583;-59
2022/09/18 01:03:59;;;;;;;8.77;1.63;;;12.20;1.00;;;;;;4952770;28;20106;-58
2022/09/18 01:06:49;;;;;;;11.30;1.80;;;11.90;1.00;;;;;;4951634;29;20461;-59
2022/09/18 01:09:22;;;;;;;7.22;1.88;;;12.30;1.00;;;;;;4952367;29;20091;-59
2022/09/18 01:11:54;;;;;;;10.57;1.90;;;;;;;;;;4951723;28;20051;-59
2022/09/18 01:14:27;;;;;;;10.25;2.22;;;;;;;;;;4952521;28;20122;-59
2022/09/18 01:17:10;;;;;;;10.48;2.10;;;;;;;;;;4958927;28;20500;-59
2022/09/18 01:20:06;;;;;;;12.35;2.00;;;12.00;68.30;;;;;;4950399;29;20043;-59
2022/09/18 01:22:46;;;;;;;14.68;3.60;;;11.80;71.90;;;;;;4951925;29;20042;-59
2022/09/18 01:25:15;;;;;;;7.97;2.42;;;;;;;;;;4952584;28;20035;-59
2022/09/18 01:27:41;;;;;;;11.40;1.70;;;;;;;;;;4951582;29;20047;-59
2022/09/18 01:30:09;;;;;;;10.95;2.05;;;11.60;69.50;;;;;;4952358;29;20035;-60
2022/09/18 01:32:41;;;;;;;7.40;2.20;;;;;;;;;;4951723;29;20047;-59
2022/09/18 01:35:38;;;;;;;7.65;1.83;;;11.60;99.90;;;;;;4950956;28;20043;-59
2022/09/18 01:38:19;;;;;;;6.82;1.90;;;11.90;99.90;;;;;;4951395;29;20299;-59
2022/09/18 01:40:51;;;;;;;10.23;1.90;;;12.20;99.90;;;;;;4952055;28;20095;-59
2022/09/18 01:43:19;;;;;;;7.82;1.60;;;;;;;;;;4950394;29;20093;-60
2022/09/18 01:45:46;;;;;;;16.25;2.53;;;;;;;;;;4950816;28;20454;-59
2022/09/18 01:48:21;;;;;;;7.03;1.40;;;11.70;99.90;;;;;;4951432;29;20116;-60
2022/09/18 01:50:49;;;;;;;7.55;1.80;;;;;;;;;;4951524;28;20039;-59
2022/09/18 01:53:27;;;;;;;8.05;1.40;;;11.60;99.90;;;;;;4951829;29;20049;-59
2022/09/18 01:56:01;;;;;;;7.47;1.48;;;12.50;99.90;;;;;;4952118;28;20102;-59
2022/09/18 01:58:31;;;;;;;8.23;1.42;;;12.10;99.90;;;;;;4951263;29;20079;-59
2022/09/18 02:00:58;;;;;;;8.38;1.98;;;;;;;;;;4952024;29;20044;-59
2022/09/18 02:03:31;;;;;;;9.68;1.50;;;;;;;;;;4951935;29;20037;-59
2022/09/18 02:06:00;;;;;;;7.60;2.58;;;;;;;;;;4951453;29;20039;-59
2022/09/18 02:08:29;;;;;;;10.20;1.63;;;;;;;;;;4951583;29;20470;-59
2022/09/18 02:11:02;;;;;;;6.88;1.58;;;11.60;99.90;;;;;;4951700;29;20035;-59
2022/09/18 02:13:30;;;;;;;9.07;1.80;;;;;;;;;;4952325;28;20043;-59
2022/09/18 02:15:59;;;;;;;8.32;1.42;;;;;;;;;;4952741;29;20043;-59
2022/09/18 02:18:32;;;;;;;8.32;1.65;;;;;;;;;;4955160;29;20038;-58
2022/09/18 02:20:58;;;;;;;6.93;1.20;;;;;;;;;;4952090;29;20517;-57
2022/09/18 02:23:24;;;;;;;5.30;1.20;;;;;;;;;;4955665;29;20039;-57
2022/09/18 02:25:59;;;;;;;8.55;1.52;;;10.90;99.90;;;;;;4955251;28;20039;-57
2022/09/18 02:28:27;;;;;;;7.40;1.40;;;11.50;99.90;;;;;;4955029;29;20046;-58
2022/09/18 02:30:53;;;;;;;4.28;1.13;;;11.30;99.90;;;;;;4953730;29;20058;-58
2022/09/18 02:33:37;;;;;;;6.43;1.15;;;11.30;99.90;;;;;;4955221;29;20413;-59
2022/09/18 02:36:27;;;;;;;9.80;1.35;;;11.50;99.90;;;;;;4955181;29;20058;-59
2022/09/18 02:39:04;;;;;;;11.00;1.52;;;;;;;;;;4954831;29;20149;-58
2022/09/18 02:41:38;;;;;;;11.15;1.63;;;;;;;;;;4954777;29;20635;-58
2022/09/18 02:44:14;;;;;;;8.52;1.50;;;11.80;99.90;;;;;;4955144;28;20114;-58
2022/09/18 02:46:53;;;;;;;9.18;1.77;;;;;;;;;;4954906;28;20066;-59
2022/09/18 02:49:39;;;;;;;8.20;1.67;;;;;;;;;;4954770;29;20050;-59
2022/09/18 02:52:23;;;;;;;7.90;1.55;;;10.90;99.90;;;;;;4955009;29;20116;-58
2022/09/18 02:54:57;;;;;;;8.43;2.08;;;;;;;;;;4954913;28;20050;-59
2022/09/18 02:57:29;;;;;;;8.38;1.60;;;11.10;99.90;;;;;;4954446;29;20097;-58
2022/09/18 02:59:58;;;;;;;8.07;1.42;;;;;;;;;;4955109;29;20047;-59
2022/09/18 03:02:24;;;;;;;7.00;1.40;;;11.10;99.90;;;;;;4953661;29;20062;-58
2022/09/18 03:04:50;;;;;;;7.70;2.25;;;10.40;99.90;;;;;;4954847;28;20054;-58
2022/09/18 03:07:19;;;;;;;6.70;1.38;;;11.00;99.90;;;;;;4953820;28;20039;-59
2022/09/18 03:09:45;;;;;;;6.70;1.67;;;11.00;99.90;;;;;;4954774;29;20039;-58
2022/09/18 03:12:11;;;;;;;6.55;1.83;;;11.20;99.90;;;;;;4954570;29;20371;-58
2022/09/18 03:14:37;;;;;;;7.63;1.67;;;11.30;99.90;;;;;;4954756;28;20505;-59
2022/09/18 03:17:03;;;;;;;7.50;1.48;;;11.50;99.90;;;;;;4953887;29;20037;-57
2022/09/18 03:19:29;;;;;;;7.80;1.58;;;11.30;99.90;;;;;;4954659;29;20041;-58
2022/09/18 03:21:54;;;;;;;7.68;2.22;;;11.40;99.90;;;;;;4954672;29;20409;-58
2022/09/18 03:24:20;;;;;;;9.80;1.75;;;11.40;99.90;;;;;;4954132;28;20498;-58
2022/09/18 03:26:46;;;;;;;8.73;1.40;;;11.30;99.90;;;;;;4954067;29;20043;-57
2022/09/18 03:29:13;;;;;;;4.22;1.40;;;11.70;99.90;;;;;;4953893;28;20378;-58
2022/09/18 03:31:39;;;;;;;7.53;1.50;;;12.00;99.90;;;;;;4954264;28;20126;-58
2022/09/18 03:34:05;;;;;;;10.75;1.63;;;;;;;;;;4954444;28;20044;-58
2022/09/18 03:36:31;;;;;;;8.10;1.58;;;;;;;;;;4952945;29;20450;-58
2022/09/18 03:38:57;;;;;;;10.75;1.73;;;11.20;99.90;;;;;;4951207;29;20562;-58
2022/09/18 03:41:23;;;;;;;8.57;1.38;;;11.70;99.90;;;;;;4954285;28;20039;-58
2022/09/18 03:43:48;;;;;;;9.05;1.58;;;11.60;99.90;;;;;;4953544;28;20425;-59
2022/09/18 03:46:22;;;;;;;9.73;1.40;;;12.00;99.90;;;;;;4953745;28;20039;-59
2022/09/18 03:48:51;;;;;;;6.90;1.58;;;;;;;;;;4953458;28;20050;-59
2022/09/18 03:51:20;;;;;;;10.30;1.70;;;12.00;99.90;;;;;;4954271;29;20078;-59
2022/09/18 03:53:46;;;;;;;9.23;1.50;;;11.40;99.90;;;;;;4953058;28;20039;-59
2022/09/18 03:56:13;;;;;;;8.30;2.00;;;11.40;99.90;;;;;;4953574;29;20122;-60
2022/09/18 03:58:39;;;;;;;8.25;1.55;;;;;;;;;;4952966;28;20061;-60
2022/09/18 04:01:06;;;;;;;12.80;1.90;;;;;;;;;;4953888;29;20043;-60
2022/09/18 04:03:32;;;;;;;9.45;1.25;;;;;;;;;;4954016;28;20051;-59
2022/09/18 04:05:59;;;;;;;6.47;1.25;;;;;;;;;;4952509;29;20074;-59
2022/09/18 04:08:25;;;;;;;6.80;1.30;;;;;;;;;;4952216;29;20051;-60
2022/09/18 04:10:51;;;;;;;7.47;1.33;;;10.60;99.90;;;;;;4953307;29;20079;-60
2022/09/18 04:13:17;;;;;;;4.53;1.10;;;10.40;99.90;;;;;;4952514;29;20071;-59
2022/09/18 04:15:44;;;;;;;6.43;1.20;;;;;;;;;;4953495;28;20413;-59
2022/09/18 04:18:10;;;;;;;5.97;1.30;;;10.30;99.90;;;;;;4951855;29;20098;-58
2022/09/18 04:20:36;;;;;;;5.10;1.20;;;10.20;99.90;;;;;;4952173;29;20541;-59
2022/09/18 04:23:02;;;;;;;12.10;2.05;;;10.70;99.90;;;;;;4953477;29;20035;-59
2022/09/18 04:25:28;;;;;;;5.70;1.30;;;;;;;;;;4953229;28;20043;-58
2022/09/18 04:27:54;;;;;;;6.70;1.40;;;;;;;;;;4952739;28;20603;-58
2022/09/18 04:30:20;;;;;;;8.23;3.05;;;;;;;;;;4953637;28;20195;-60
2022/09/18 04:32:46;;;;;;;9.82;1.83;;;;;;;;;;4953356;29;20046;-59
2022/09/18 04:35:11;;;;;;;9.18;1.35;;;10.30;99.90;;;;;;4952020;28;20429;-59
2022/09/18 04:37:37;;;;;;;11.63;1.80;;;;;;;;;;4951991;28;20035;-59
2022/09/18 04:40:06;;;;;;;7.93;1.73;;;;;;;;;;4953040;29;20095;-59
2022/09/18 04:42:32;;;;;;;6.82;1.70;;;10.60;99.90;;;;;;4951112;29;20557;-60
2022/09/18 04:44:58;;;;;;;7.45;2.00;;;;;;;;;;4952125;28;20118;-59
2022/09/18 04:47:23;;;;;;;6.90;1.83;;;10.60;99.90;;;;;;4952591;29;20043;-59
2022/09/18 04:49:49;;;;;;;7.30;1.60;;;10.60;99.90;;;;;;4952964;29;20071;-59
2022/09/18 04:52:18;;;;;;;13.07;2.05;;;;;;;;;;4952804;29;20503;-60
2022/09/18 04:54:43;;;;;;;6.97;2.05;;;10.60;99.90;;;;;;4951521;28;20055;-59
2022/09/18 04:57:09;;;;;;;13.40;2.47;;;;;;;;;;4951561;29;20098;-59
2022/09/18 04:59:35;;;;;;;8.07;1.50;;;10.70;99.90;;;;;;4952835;29;20512;-59
2022/09/18 05:02:00;;;;;;;5.95;1.40;;;10.60;99.90;;;;;;4951252;29;20126;-59
2022/09/18 05:04:26;;;;;;;7.07;1.52;;;10.60;99.90;;;;;;4951305;28;20057;-58
2022/09/18 05:06:52;;;;;;;11.45;1.65;;;;;;;;;;4952307;29;20465;-60
2022/09/18 05:09:17;;;;;;;8.45;1.45;;;10.60;99.90;;;;;;4950891;29;20184;-60
2022/09/18 05:11:43;;;;;;;4.80;1.42;;;10.70;99.90;;;;;;4952775;29;20066;-59
2022/09/18 05:14:09;;;;;;;8.50;1.55;;;10.80;99.90;;;;;;4951429;28;20070;-59
2022/09/18 05:16:35;;;;;;;10.80;1.77;;;;;;;;;;4952472;29;20130;-59
2022/09/18 05:19:00;;;;;;;10.80;1.63;;;10.80;99.90;;;;;;4952055;29;20446;-60
2022/09/18 05:21:26;;;;;;;7.38;1.75;;;10.70;99.90;;;;;;4952019;29;20191;-59
2022/09/18 05:23:52;;;;;;;11.10;1.85;;;;;;;;;;4952273;28;20035;-59
2022/09/18 05:26:18;;;;;;;8.95;2.13;;;;;;;;;;4949291;29;20351;-58
2022/09/18 05:28:43;;;;;;;10.93;2.03;;;10.60;99.90;;;;;;4950433;29;20050;-59
2022/09/18 05:31:09;;;;;;;11.82;1.85;;;10.60;99.90;;;;;;4950966;29;20078;-59
2022/09/18 05:33:35;;;;;;;13.13;2.75;;;10.60;99.90;;;;;;4950126;28;20039;-59
2022/09/18 05:36:03;;;;;;;12.30;2.03;;;;;;;;;;4950438;29;20039;-59
2022/09/18 05:38:29;;;;;;;11.50;2.25;;;10.50;99.90;;;;;;4949077;29;20139;-59
2022/09/18 05:40:58;;;;;;;8.80;2.00;;;;;;;;;;4950923;29;20067;-58
2022/09/18 05:43:24;;;;;;;9.20;2.10;;;;;;;;;;4952560;29;20035;-59
2022/09/18 05:45:50;;;;;;;10.35;2.15;;;;;;;;;;4951998;28;20046;-60
2022/09/18 05:48:16;;;;;;;9.15;2.53;;;10.30;99.90;;;;;;4952191;29;20542;-59
2022/09/18 05:50:42;;;;;;;9.55;2.25;;;10.30;99.90;;;;;;4951711;23;20134;-58
2022/09/18 05:53:15;;;;;;;10.05;2.00;;;;;;;;;;4933051;29;20035;-58
2022/09/18 05:55:41;;;;;;;12.98;1.90;;;10.30;99.90;;;;;;4933087;29;20333;-57
2022/09/18 05:58:12;;;;;;;10.65;1.92;;;10.80;99.90;;;;;;4932958;29;20035;-58
2022/09/18 06:00:40;;;;;;;7.35;1.67;;;10.70;99.90;;;;;;4933310;29;20387;-59
2022/09/18 06:03:08;;;;;;;12.55;2.08;;;10.60;99.90;;;;;;4927142;29;20489;-57
2022/09/18 06:05:36;;;;;;;12.70;2.20;;;10.20;99.90;;;;;;4932624;29;20409;-58
2022/09/18 06:08:04;;;;;;;10.88;1.73;;;10.80;99.90;;;;;;4932189;29;20122;-59
2022/09/18 06:10:31;;;;;;;9.05;2.42;;;10.70;99.90;;;;;;4932925;29;20127;-59
2022/09/18 06:13:05;;;;;;;11.40;1.95;;;10.40;99.90;;;;;;4932746;29;20597;-58
2022/09/18 06:15:31;;;;;;;29.45;2.70;;;9.80;99.90;;;;;;4933000;29;20039;-58
2022/09/18 06:17:57;;;;;;;32.05;4.57;;;10.40;99.90;;;;;;4932136;29;20031;-58
2022/09/18 06:20:23;;;;;;;8.52;2.13;;;10.50;99.90;;;;;;4933152;29;20481;-57
2022/09/18 06:22:49;;;;;;;7.80;1.42;;;11.20;99.90;;;;;;4932754;29;20043;-58
2022/09/18 06:25:18;;;;;;;10.60;2.55;;;10.60;99.90;;;;;;4932799;29;20106;-58
2022/09/18 06:27:44;;;;;;;5.20;1.70;;;10.90;99.90;;;;;;4931237;29;20047;-61
2022/09/18 06:30:10;;;;;;;9.25;1.42;;;10.90;99.90;;;;;;4932715;29;20414;-57
2022/09/18 06:32:36;;;;;;;5.38;1.42;;;10.80;99.90;;;;;;4932067;29;20091;-59
2022/09/18 06:35:02;;;;;;;7.78;1.50;;;;;;;;;;4933029;29;20075;-57
2022/09/18 06:37:28;;;;;;;6.38;1.33;;;10.70;99.90;;;;;;4932037;29;20397;-59
2022/09/18 06:39:53;;;;;;;6.75;2.03;;;10.80;99.90;;;;;;4933015;29;20039;-59
2022/09/18 06:42:19;;;;;;;10.35;2.15;;;10.70;99.90;;;;;;4931754;29;20272;-59
2022/09/18 06:44:44;;;;;;;7.95;1.98;;;11.00;99.90;;;;;;4930666;29;20035;-58
2022/09/18 06:47:10;;;;;;;11.68;2.22;;;10.40;99.90;;;;;;4931458;29;20032;-58
2022/09/18 06:49:36;;;;;;;6.78;1.30;;;10.20;99.90;;;;;;4928480;29;20036;-57
2022/09/18 06:52:02;;;;;;;12.05;1.95;;;11.20;99.90;;;;;;4933068;29;20031;-59
2022/09/18 06:54:27;;;;;;;10.88;2.10;;;10.90;99.90;;;;;;4931335;29;20050;-57
2022/09/18 06:56:53;;;;;;;10.13;1.98;;;10.00;99.90;;;;;;4932501;29;20155;-60
2022/09/18 06:59:18;;;;;;;11.15;2.40;;;11.00;99.90;;;;;;4931651;29;20036;-60
2022/09/18 07:01:47;;;;;;;10.20;2.97;;;10.30;99.90;;;;;;4934976;29;20556;-60
2022/09/18 07:04:12;;;;;;;10.45;1.98;;;11.00;99.90;;;;;;4934937;29;20043;-59
2022/09/18 07:06:38;;;;;;;10.23;2.17;;;11.00;99.90;;;;;;4935090;29;20049;-59
2022/09/18 07:09:03;;;;;;;7.63;1.92;;;10.10;99.90;;;;;;4934904;29;20046;-60
2022/09/18 07:11:30;;;;;;;13.38;2.28;;;10.70;99.90;;;;;;4934917;29;20074;-58
2022/09/18 07:13:55;;;;;;;11.50;1.65;;;11.00;99.90;;;;;;4934849;29;20043;-59
2022/09/18 07:16:21;;;;;;;13.27;2.55;;;10.70;99.90;;;;;;4935513;29;20517;-59
2022/09/18 07:18:47;;;;;;;6.93;1.70;;;10.50;99.90;;;;;;4934057;29;20036;-58
2022/09/18 07:21:13;;;;;;;7.50;1.67;;;10.70;99.90;;;;;;4936303;29;20206;-58
2022/09/18 07:23:39;;;;;;;10.95;1.90;;;10.50;99.90;;;;;;4935644;29;20028;-59
2022/09/18 07:26:08;;;;;;;8.70;1.75;;;10.70;99.90;;;;;;4935103;29;20082;-60
2022/09/18 07:28:33;;;;;;;16.30;1.90;;;10.30;99.90;;;;;;4935652;29;20555;-60
2022/09/18 07:31:05;;;;;;;11.80;2.08;;;10.40;99.90;;;;;;4934887;29;20124;-58
2022/09/18 07:33:31;;;;;;;8.73;1.85;;;;;;;;;;4935414;29;20086;-60
2022/09/18 07:36:01;;;;;;;9.05;1.80;;;10.00;99.90;;;;;;4936058;29;20047;-57
2022/09/18 07:38:27;;;;;;;8.63;1.75;;;11.20;99.90;;;;;;4935750;29;20067;-58
2022/09/18 07:40:53;;;;;;;11.88;2.10;;;10.80;99.90;;;;;;4935729;29;20055;-59
2022/09/18 07:43:19;;;;;;;7.45;1.80;;;10.10;99.90;;;;;;4934709;29;20466;-60
2022/09/18 07:45:45;;;;;;;7.90;1.30;;;10.90;99.90;;;;;;4935390;29;20130;-60
2022/09/18 07:48:11;;;;;;;8.05;1.83;;;10.70;99.90;;;;;;4933526;29;20054;-58
2022/09/18 07:50:37;;;;;;;5.75;1.30;;;10.70;99.90;;;;;;4935285;29;20075;-58
2022/09/18 07:53:04;;;;;;;6.72;1.58;;;10.90;99.90;;;;;;4935784;29;20094;-55
2022/09/18 07:55:32;;;;;;;8.30;1.42;;;10.90;99.90;;;;;;4935218;29;20047;-60
2022/09/18 07:58:01;;;;;;;6.25;1.15;;;10.90;99.90;;;;;;4928054;29;20039;-60
2022/09/18 08:00:29;;;;;;;11.38;1.55;;;10.90;99.90;;;;;;4935667;29;20042;-60
2022/09/18 08:03:21;;;;;;;8.95;1.58;;;10.90;99.90;;;;;;4935350;29;20498;-58
2022/09/18 08:05:46;;;;;;;7.00;1.25;;;11.00;99.90;;;;;;4932212;29;20058;-59
2022/09/18 08:08:13;;;;;;;12.95;1.60;;;10.20;99.90;;;;;;4935178;29;20035;-59
2022/09/18 08:10:42;;;;;;;16.27;2.13;;;11.20;99.90;;;;;;4933660;29;20051;-60
2022/09/18 08:13:08;;;;;;;10.18;2.00;;;11.40;99.90;;;;;;4935006;29;20040;-59
2022/09/18 08:15:37;;;;;;;12.15;2.33;;;11.20;99.90;;;;;;4934700;29;20040;-60
2022/09/18 08:18:07;;;;;;;9.93;2.42;;;11.20;99.90;;;;;;4934919;29;20518;-60
2022/09/18 08:20:33;;;;;;;6.45;1.30;;;11.00;99.90;;;;;;4934487;29;20039;-60
2022/09/18 08:23:03;;;;;;;6.82;1.40;;;10.80;99.90;;;;;;4933706;29;20042;-58
2022/09/18 08:25:29;;;;;;;5.38;1.02;;;10.70;99.90;;;;;;4933319;29;20050;-58
2022/09/18 08:28:00;;;;;;;8.32;1.13;;;11.10;99.90;;;;;;4934696;29;20040;-59
2022/09/18 08:30:26;;;;;;;5.10;1.00;;;11.10;99.90;;;;;;4934920;29;20055;-60
2022/09/18 08:33:00;;;;;;;7.50;1.20;;;10.90;99.90;;;;;;4934929;29;20035;-60
2022/09/18 08:35:26;;;;;;;9.80;1.25;;;10.80;99.90;;;;;;4934513;29;20074;-60
2022/09/18 08:37:52;;;;;;;5.97;1.23;;;11.10;99.90;;;;;;4934560;29;20032;-57
2022/09/18 08:40:21;;;;;;;6.10;1.25;;;10.70;99.90;;;;;;4934747;29;20036;-58
2022/09/18 08:43:05;;;;;;;5.95;1.65;;;10.50;99.90;;;;;;4934965;29;20048;-58
2022/09/18 08:46:11;;;;;;;6.70;1.30;;;11.10;99.90;;;;;;4934573;29;20056;-57
2022/09/18 08:48:43;;;;;;;10.13;2.15;;;11.70;99.90;;;;;;4859946;29;20109;-60
2022/09/18 08:51:15;;;;;;;6.05;1.58;;;11.60;99.90;;;;;;4875815;29;20419;-58
2022/09/18 08:53:44;;;;;;;6.25;1.35;;;10.90;99.90;;;;;;4907361;29;20111;-59
2022/09/18 08:56:20;;;;;;;7.63;1.38;;;11.00;99.90;;;;;;4934223;29;20438;-59
2022/09/18 08:58:54;;;;;;;9.20;1.73;;;11.00;99.90;;;;;;4932859;29;20055;-60
2022/09/18 09:01:24;;;;;;;10.97;1.60;;;11.50;99.90;;;;;;4934580;29;20040;-60
2022/09/18 09:04:28;;;;;;;7.80;1.40;;;10.90;99.90;;;;;;4934377;29;20047;-60
2022/09/18 09:07:28;;;;;;;7.63;1.50;;;11.00;99.90;;;;;;4912428;29;20511;-58
2022/09/18 09:10:23;;;;;;;11.52;2.80;;;10.60;99.90;;;;;;4904660;29;20056;-59
2022/09/18 09:13:04;;;;;;;12.80;3.25;;;11.30;99.90;;;;;;4930149;29;20054;-60
2022/09/18 09:15:40;;;;;;;11.07;2.90;;;10.90;99.90;;;;;;4932039;29;20044;-60
2022/09/18 09:18:32;;;;;;;10.60;2.60;;;10.80;99.90;;;;;;4933629;29;20104;-59
2022/09/18 09:21:22;;;;;;;11.80;2.37;;;11.50;99.90;;;;;;4933741;29;20481;-58
2022/09/18 09:23:47;;;;;;;8.77;1.65;;;10.40;99.90;;;;;;4933000;29;20043;-60
2022/09/18 09:26:20;;;;;;;7.45;1.55;;;10.90;99.90;;;;;;4934004;29;20086;-61
2022/09/18 09:29:00;;;;;;;11.15;1.90;;;10.90;92.10;;;;;;4933372;29;20049;-61
2022/09/18 09:31:35;;;;;;;10.20;1.88;;;10.80;99.90;;;;;;4934108;29;20163;-60
2022/09/18 09:34:13;;;;;;;11.23;1.85;;;11.00;99.90;;;;;;4932868;29;20111;-61
2022/09/18 09:36:41;;;;;;;13.25;2.08;;;11.10;99.90;;;;;;4933741;29;20501;-60
2022/09/18 09:39:33;;;;;;;13.05;1.85;;;11.00;99.90;;;;;;4932924;29;20043;-57
2022/09/18 09:42:30;;;;;;;5.38;1.95;;;11.20;99.90;;;;;;4928606;29;20524;-59
2022/09/18 09:45:28;;;;;;;14.27;2.78;;;10.70;99.90;;;;;;4934167;29;20039;-59
2022/09/18 09:48:00;;;;;;;12.25;1.95;;;10.60;99.90;;;;;;4933889;29;20035;-59
2022/09/18 09:50:32;;;;;;;10.57;2.10;;;10.80;99.90;;;;;;4932793;29;20047;-59
2022/09/18 09:53:02;;;;;;;13.95;2.22;;;10.90;99.90;;;;;;4934193;29;20131;-58
2022/09/18 09:56:02;;;;;;;9.98;2.17;;;10.90;99.90;;;;;;4932546;29;20079;-58
2022/09/18 09:58:49;;;;;;;14.02;2.75;;;10.90;99.90;;;;;;4929396;29;20047;-57
2022/09/18 10:01:26;;;;;;;10.68;2.40;;;10.40;99.90;;;;;;4933707;29;20050;-57
2022/09/18 10:04:13;;;;;;;13.25;2.97;;;10.90;99.90;;;;;;4933470;29;20095;-58
2022/09/18 10:06:47;;;;;;;11.73;3.17;;;10.50;99.90;;;;;;4932091;29;20067;-58
2022/09/18 10:09:14;;;;;;;;;;;11.60;99.90;;;;;;4934602;29;20051;-63
2022/09/18 10:11:42;;;;;;;11.95;2.55;;;11.00;99.90;;;;;;4933559;29;20685;-59
2022/09/18 10:14:22;;;;;;;11.85;2.58;;;11.10;99.90;;;;;;4931233;29;20035;-59
2022/09/18 10:16:51;;;;;;;15.38;3.17;;;11.50;99.90;;;;;;4930757;29;20058;-59
2022/09/18 10:19:20;;;;;;;14.95;2.33;;;11.00;1.00;;;;;;4932956;29;20110;-59
2022/09/18 10:21:51;;;;;;;16.98;3.08;;;11.10;99.90;;;;;;4932317;29;20048;-59
2022/09/18 10:27:18;;;;;;;12.60;2.50;;;12.10;99.90;;;;;;4950717;29;20155;-60
2022/09/18 10:29:45;;;;;;;14.43;2.63;;;12.10;74.10;;;;;;4871981;29;20290;-60
2022/09/18 10:32:12;;;;;;;10.82;2.63;;;;;;;;;;4860221;29;20456;-61
2022/09/18 10:34:41;;;;;;;12.30;2.67;;;11.80;99.90;;;;;;4942924;28;20031;-60
2022/09/18 10:47:18;;;;;;;8.45;1.52;;;11.50;99.90;;;;;;4968757;28;20433;-61
2022/09/18 10:59:37;;;;;;;14.13;3.38;;;12.20;99.90;;;;;;4965862;28;20051;-61
2022/09/18 11:02:12;;;;;;;12.32;2.17;;;12.60;99.90;;;;;;4971397;28;20046;-62
2022/09/18 11:04:38;;;;;;;10.07;1.60;;;12.10;1.00;;;;;;4964805;28;20043;-62
2022/09/18 11:07:06;;;;;;;10.15;2.90;;;12.40;1.00;;;;;;4963888;28;20123;-63
2022/09/18 11:09:37;;;;;;;9.30;1.92;;;12.50;1.00;;;;;;4956631;28;20196;-61
2022/09/18 11:12:06;;;;;;;10.65;1.52;;;12.50;1.00;;;;;;4884887;28;20328;-61
2022/09/18 11:14:39;;;;;;;7.28;2.20;;;12.00;1.00;;;;;;4894878;28;20117;-61
2022/09/18 11:17:12;;;;;;;7.73;2.20;;;12.50;46.80;;;;;;4962601;28;20038;-62
2022/09/18 11:19:39;;;;;;;6.10;1.77;;;;;;;;;;4964983;28;20046;-62
2022/09/18 11:22:06;;;;;;;10.95;1.90;;;;;;;;;;4958070;28;20102;-61
2022/09/18 11:29:38;;;;;;;10.73;1.80;;;;;;;;;;4923414;29;20059;-61
2022/09/18 11:32:20;;;;;;;10.40;2.95;;;12.50;1.00;;;;;;4883575;29;20475;-59
2022/09/18 11:35:04;;;;;;;14.32;1.95;;;12.70;90.60;;;;;;5009300;23;20058;-60
2022/09/18 11:37:34;;;;;;;6.50;1.50;;;12.00;99.90;;;;;;4954750;28;20039;-62
2022/09/18 11:40:23;;;;;;;5.85;1.33;;;12.20;1.00;;;;;;4958083;28;20038;-63
2022/09/18 11:42:52;;;;;;;5.53;1.30;;;11.10;1.00;;;;;;4950440;28;20532;-61
2022/09/18 11:45:33;;;;;;;6.13;1.30;;;10.80;1.00;;;;;;4943589;28;20098;-63
2022/09/18 11:48:31;;;;;;;8.45;1.77;;;10.40;1.00;;;;;;4933509;29;20063;-62
2022/09/18 11:51:00;;;;;;;6.97;1.63;;;;;;;;;;5013578;23;20517;-63
2022/09/18 12:29:45;;;;;;;11.05;3.03;;;;;;;;;;5110047;23;20059;-90
2022/09/18 12:44:29;;;;;;;;;;;;;;;;;;;;;
2022/09/18 13:11:31;;;;;;;7.97;2.10;;;;;;;;;;4805979;29;20068;-85
2022/09/18 13:25:11;;;;;;;;;;;;;;;;;;;;;
2022/09/18 13:31:45;;;;;;;10.63;2.00;;;;;;;;;;4758624;30;20067;-86
2022/09/18 13:41:52;;;;;;;;;;;;;;;;;;;;;
2022/09/18 13:44:52;;;;;;;8.43;1.88;;;;;;;;;;4710491;30;20051;-85
2022/09/18 13:54:48;;;;;;;9.93;2.60;;;;;;;;;;4847644;29;20046;-84
2022/09/18 13:57:45;;;;;;;10.43;2.13;;;;;;;;;;4900772;29;20056;-85
2022/09/18 14:05:19;;;;;;;17.83;11.98;;;13.30;99.90;;;;;;4787910;29;20595;-86
2022/09/18 14:07:59;;;;;;;7.47;2.63;;;;;;;;;;4821178;29;20057;-86
2022/09/18 14:10:41;;;;;;;12.13;3.88;;;;;;;;;;4847022;29;20633;-86
2022/09/18 14:13:38;;;;;;;8.20;1.90;;;;;;;;;;4850721;29;20146;-84
2022/09/18 14:16:26;;;;;;;10.55;1.95;;;;;;;;;;4881975;29;20065;-84
2022/09/18 14:19:05;;;;;;;11.30;2.47;;;;;;;;;;4870664;29;20037;-85
2022/09/18 14:21:51;;;;;;;6.80;1.20;;;;;;;;;;4876832;29;20048;-85
2022/09/18 14:28:02;;;;;;;7.85;1.85;;;;;;;;;;4997399;23;20411;-84
2022/09/18 14:30:29;;;;;;;8.85;1.75;;;;;;;;;;4902413;29;20108;-85
2022/09/18 14:33:10;;;;;;;8.88;2.83;;;;;;;;;;4865930;29;20305;-87
2022/09/18 14:36:08;;;;;;;9.52;1.95;;;;;;;;;;4898529;29;20041;-85
2022/09/18 14:38:39;;;;;;;7.28;1.92;;;;;;;;;;4900886;29;20084;-84
2022/09/18 14:41:33;;;;;;;9.70;1.95;;;;;;;;;;4902271;29;20076;-85
2022/09/18 14:44:35;;;;;;;9.70;2.08;;;;;;;;;;4904108;29;20040;-85
2022/09/18 14:55:21;;;;;;;6.70;1.77;;;16.70;99.90;;;;;;4831795;29;20032;-84
2022/09/18 15:02:00;;;;;;;6.27;1.70;;;;;;;;;;4772282;30;20048;-84
2022/09/18 15:27:26;;;;;;;8.27;2.30;;;25.90;99.90;;;;;;4852762;29;20112;-84
2022/09/18 15:30:18;;;;;;;9.45;2.40;;;23.50;99.90;;;;;;4857752;29;20125;-84
2022/09/18 15:44:45;;;;;;;;;;;;;;;;;;;;;
2022/09/18 15:47:27;;;;;;;4.78;1.40;;;;;;;;;;4881035;29;20060;-83
2022/09/18 15:49:54;;;;;;;8.80;2.10;;;17.40;99.90;;;;;;4921049;29;20032;-83
2022/09/18 15:52:46;;;;;;;9.25;2.03;;;17.70;99.90;;;;;;4918028;29;20048;-83
2022/09/18 15:55:21;;;;;;;9.27;1.63;;;17.80;99.90;;;;;;4902367;29;20044;-83
2022/09/18 15:57:52;;;;;;;6.13;1.95;;;20.40;99.90;;;;;;4913327;29;20017;-84
2022/09/18 16:00:20;;;;;;;14.60;2.38;;;20.50;99.90;;;;;;4896584;29;20033;-83
2022/09/18 16:03:03;;;;;;;8.38;1.65;;;20.90;99.90;;;;;;4888520;29;20037;-83
2022/09/18 16:05:32;;;;;;;8.85;2.58;;;21.70;99.90;;;;;;4904195;29;20037;-83
2022/09/18 16:08:04;;;;;;;12.07;2.28;;;21.50;99.90;;;;;;4902671;29;20051;-84
2022/09/18 16:10:33;;;;;;;8.77;2.70;;;20.90;99.90;;;;;;4902437;29;20045;-83
2022/09/18 16:13:13;;;;;;;9.50;2.70;;;20.50;99.90;;;;;;4894432;29;20051;-83
2022/09/18 16:15:46;;;;;;;8.98;1.80;;;19.70;99.90;;;;;;4904484;29;20036;-84
2022/09/18 16:18:18;;;;;;;10.73;2.33;;;19.70;99.90;;;;;;4889681;29;20634;-83
2022/09/18 16:20:48;;;;;;;8.57;2.00;;;;;;;;;;4906636;29;20041;-83
2022/09/18 16:23:18;;;;;;;8.18;1.98;;;17.60;99.90;;;;;;4923006;29;20040;-83
2022/09/18 16:25:57;;;;;;;11.10;2.30;;;16.80;99.90;;;;;;4923957;29;20079;-83
2022/09/18 16:28:25;;;;;;;12.07;2.58;;;17.10;99.90;;;;;;4905970;29;20043;-83
2022/09/18 16:30:52;;;;;;;9.15;2.42;;;15.70;99.90;;;;;;4902001;29;20048;-83
2022/09/18 16:33:19;;;;;;;9.27;2.47;;;15.50;99.90;;;;;;4910364;29;20043;-83
2022/09/18 16:48:48;;;;;;;7.63;1.65;;;;;;;;;;4891380;29;20052;-84
2022/09/18 16:55:08;;;;;;;;;;;;;;;;;;;;;
2022/09/18 17:01:42;;;;;;;10.63;1.83;;;;;;;;;;4810161;29;20117;-87
2022/09/18 17:04:59;;;;;;;;;;;;;;;;;;;;;
2022/09/18 17:21:50;;;;;;;15.05;2.75;;;;;;;;;;4797817;29;20417;-88
2022/09/18 17:24:26;;;;;;;7.72;1.90;;;;;;;;;;4823599;29;20134;-87
2022/09/18 17:32:51;;;;;;;14.02;1.83;;;;;;;;;;4913678;29;20051;-88
2022/09/18 17:35:30;;;;;;;9.45;2.15;;;;;;;;;;4908331;29;20044;-87